메인 페이지
METAR-TAF:

METAR-TAF

공항 :

테헤란, 이란

테헤란 메흐라바드 국제공항

위도: 35-41N, 경도: 051-21E, 고도: 1204m

현재 날씨관측

예보는 21분 전, 00:30시(UTC)에 발표되었습니다.
동북동4kt
온도 9°C
습도 66%
기압 1016 hPa
시정 10km 이상
고도 3500ft 상공 구름 보통
고도 10000ft 상공 구름 많음

METAR: OIII 180030Z 06004KT 9999 SCT035 BKN100 09/03 Q1016 A3000

시각: 04:21 (00:51 UTC)

예보

예보는 1 시간 6분 전, 23:45시(UTC)에 발표되었습니다.
예보 대상 시간: 18일 00시부터 19일 06시까지 (UTC)
남동8kt
시정: 4000m
고도 3000ft 상공 구름 조금, 적란운.
고도 3500ft 상공 구름 보통
고도 9000ft 상공 구름 많음
연무
일시적
18일 00시부터 18일 04시까지 (UTC)
시정: 2000m
비, 박무
일시적
18일 09시부터 18일 18시까지 (UTC)
남동16kt
시정: 3000m
고도 3000ft 상공 구름 보통, 적란운.
고도 3500ft 상공 구름 보통
고도 8000ft 상공 흐림
소나기, 박무
전환 중
18일 23시부터 18일 24시까지 (UTC)
북서8kt
시정: 4000m
고도 3500ft 상공 구름 조금
박무

TAF: OIII 172345Z 1800/1906 13004MPS 4000 HZ FEW030CB SCT035 BKN090 TEMPO 1800/1804 2000 RA BR TEMPO 1809/1818 13008MPS 3000 SHRA BR SCT030CB SCT035 OVC080 BECMG 1823/1824 31004MPS 4000 BR FEW035

4,000개 이상의 공항 관측 자료 및 예보 (METAR 및 TAF 보고).

지도상에서 검색 가능한 기상관측소가 노란 점과 빨간 점으로 표시되어 있습니다.

기상관측소 명을 보려면 표시 위로 마우스를 이동하세요.

날씨 관측과 예보를 보려면 클릭하세요.

지도 변경 : 확대하려면 엑스 표시가 있는 녹색 버튼, 축소하려면 빼기 표시가 있는 녹색 버튼, 다음 페이지의 지도를 보려면 녹색 화살표를 클릭하세요.


METAR-TAF: